Hovedside
METAR-TAF:

METAR-TAF

Lufthavner :

Gerbangkertosusila, Indonesia

breddegrad: 07-22-47S, lengdegrad: 112-47-13E, høyde over havet: 3 m

Gjeldene værobservasjon

Denne rapporten ble laget for 48 minutter siden, klokken 10:30 UTC
Vind 6 kt fra Øst-nordøst
Temperatur 29°C
Luftfuktighet 84%
Trykk 1008 hPa
Sikt: 9000 m
Spredte skyer i en høyde av 1800 ft

METAR: WARR 151030Z 06006KT 9000 SCT018 29/26 Q1008 NOSIG

Tid: 18:18 (11:18 UTC)

Varsel

Denne rapporten ble laget for 6 timer og 18 minutter siden, klokken 05:00 UTC
Varsel gyldig fra 15. klokken 06 UTC til 16. klokken 06 UTC
Vind 10 kt fra Øst
Sikt 10 km eller mer
Få skyer i en høyde av 2000 ft

TAF: WARR 150500Z 1506/1606 09010KT 9999 FEW020

Værobservasjoner og værvarsel for over 4000 flyplasser (METAR- og TAF-rapporter).

Tilgjengelige stasjoner er representert av de røde og gule prikkene på kartet.

Hold musepekeren over prikken for å se navnet på stasjonen.

Klikk så for å se værobservasjoner og -varsler.

For å forandre kartet kan du klikke på den grønne knappen med svart kryss for å zoome inn, på den grønne knappen med strek for å zoome ut, eller på de grønne pilene for å se tilstøtende kart.


METAR-TAF: